Time;durP1;ratioP1;P1;durP2;ratioP2;P2;SDS_P1;SDS_P2;PMS_P1;PMS_P2;Temp;Humidity;BMP_temperature;BMP_pressure;BME280_temperature;BME280_humidity;BME280_pressure;Samples;Min_cycle;Max_cycle;Signal;HPM_P1;HPM_P2
2022/08/10 00:00:25;;;;;;;4.749999;4.35;;;;;;;15.17;59.2959;95988.78;;;;
2022/08/10 00:01:25;;;;;;;4.749999;4.35;;;;;;;15.17;59.2959;95988.78;;;;
2022/08/10 00:02:26;;;;;;;4.749999;4.35;;;;;;;15.17;59.2959;95988.78;;;;
2022/08/10 00:03:26;;;;;;;4.749999;4.35;;;;;;;15.17;59.2959;95988.78;;;;
2022/08/10 00:04:27;;;;;;;4.749999;4.35;;;;;;;15.17;59.2959;95988.78;;;;
2022/08/10 00:05:27;;;;;;;4.749999;4.35;;;;;;;15.17;59.2959;95988.78;;;;
2022/08/10 00:06:28;;;;;;;4.749999;4.35;;;;;;;15.17;59.2959;95988.78;;;;
2022/08/10 00:07:28;;;;;;;4.749999;4.35;;;;;;;15.17;59.2959;95988.78;;;;
2022/08/10 00:08:29;;;;;;;4.749999;4.35;;;;;;;15.17;59.2959;95988.78;;;;
2022/08/10 00:09:30;;;;;;;5.55;4.849999;;;;;;;14.96;59.76953;95984.44;;;;
2022/08/10 00:10:30;;;;;;;5.55;4.849999;;;;;;;14.96;59.76953;95984.44;;;;
2022/08/10 00:11:31;;;;;;;5.55;4.849999;;;;;;;14.96;59.76953;95984.44;;;;
2022/08/10 00:12:31;;;;;;;5.55;4.849999;;;;;;;14.96;59.76953;95984.44;;;;
2022/08/10 00:13:32;;;;;;;5.55;4.849999;;;;;;;14.96;59.76953;95984.44;;;;
2022/08/10 00:14:33;;;;;;;5.55;4.849999;;;;;;;14.96;59.76953;95984.44;;;;
2022/08/10 00:15:33;;;;;;;5.55;4.849999;;;;;;;14.96;59.76953;95984.44;;;;
2022/08/10 00:16:34;;;;;;;5.55;4.849999;;;;;;;14.96;59.76953;95984.44;;;;
2022/08/10 00:17:34;;;;;;;5.55;4.849999;;;;;;;14.96;59.76953;95984.44;;;;
2022/08/10 00:18:35;;;;;;;5.55;4.849999;;;;;;;14.96;59.76953;95984.44;;;;
2022/08/10 00:19:36;;;;;;;5.55;4.849999;;;;;;;14.96;59.76953;95984.44;;;;
2022/08/10 00:20:36;;;;;;;5.699999;5.05;;;;;;;14.82;60.2959;95998.91;;;;
2022/08/10 00:21:37;;;;;;;5.699999;5.05;;;;;;;14.82;60.2959;95998.91;;;;
2022/08/10 00:22:37;;;;;;;5.699999;5.05;;;;;;;14.82;60.2959;95998.91;;;;
2022/08/10 00:23:38;;;;;;;5.699999;5.05;;;;;;;14.82;60.2959;95998.91;;;;
2022/08/10 00:24:39;;;;;;;5.699999;5.05;;;;;;;14.82;60.2959;95998.91;;;;
2022/08/10 00:25:39;;;;;;;5.699999;5.05;;;;;;;14.82;60.2959;95998.91;;;;
2022/08/10 00:26:40;;;;;;;5.699999;5.05;;;;;;;14.82;60.2959;95998.91;;;;
2022/08/10 00:27:40;;;;;;;5.699999;5.05;;;;;;;14.82;60.2959;95998.91;;;;
2022/08/10 00:28:41;;;;;;;5.699999;5.05;;;;;;;14.82;60.2959;95998.91;;;;
2022/08/10 00:29:41;;;;;;;5.699999;5.05;;;;;;;14.82;60.2959;95998.91;;;;
2022/08/10 00:30:42;;;;;;;5.699999;5.05;;;;;;;14.82;60.2959;95998.91;;;;
2022/08/10 00:31:43;;;;;;;5.45;4.95;;;;;;;14.6;60.80078;95997.19;;;;
2022/08/10 00:32:43;;;;;;;5.45;4.95;;;;;;;14.6;60.80078;95997.19;;;;
2022/08/10 00:33:44;;;;;;;5.45;4.95;;;;;;;14.6;60.80078;95997.19;;;;
2022/08/10 00:34:44;;;;;;;5.45;4.95;;;;;;;14.6;60.80078;95997.19;;;;
2022/08/10 00:35:45;;;;;;;5.45;4.95;;;;;;;14.6;60.80078;95997.19;;;;
2022/08/10 00:36:46;;;;;;;5.45;4.95;;;;;;;14.6;60.80078;95997.19;;;;
2022/08/10 00:37:46;;;;;;;5.45;4.95;;;;;;;14.6;60.80078;95997.19;;;;
2022/08/10 00:38:47;;;;;;;5.45;4.95;;;;;;;14.6;60.80078;95997.19;;;;
2022/08/10 00:39:47;;;;;;;5.45;4.95;;;;;;;14.6;60.80078;95997.19;;;;
2022/08/10 00:40:48;;;;;;;5.45;4.95;;;;;;;14.6;60.80078;95997.19;;;;
2022/08/10 00:41:48;;;;;;;6.050001;5.5;;;;;;;14.47;61.24023;95999.55;;;;
2022/08/10 00:42:49;;;;;;;6.050001;5.5;;;;;;;14.47;61.24023;95999.55;;;;
2022/08/10 00:43:49;;;;;;;6.050001;5.5;;;;;;;14.47;61.24023;95999.55;;;;
2022/08/10 00:44:50;;;;;;;6.050001;5.5;;;;;;;14.47;61.24023;95999.55;;;;
2022/08/10 00:45:50;;;;;;;6.050001;5.5;;;;;;;14.47;61.24023;95999.55;;;;
2022/08/10 00:46:51;;;;;;;6.050001;5.5;;;;;;;14.47;61.24023;95999.55;;;;
2022/08/10 00:47:52;;;;;;;6.050001;5.5;;;;;;;14.47;61.24023;95999.55;;;;
2022/08/10 00:48:52;;;;;;;6.050001;5.5;;;;;;;14.47;61.24023;95999.55;;;;
2022/08/10 00:49:53;;;;;;;6.050001;5.5;;;;;;;14.47;61.24023;95999.55;;;;
2022/08/10 00:50:54;;;;;;;6.050001;5.5;;;;;;;14.47;61.24023;95999.55;;;;
2022/08/10 00:51:55;;;;;;;6.050001;5.5;;;;;;;14.47;61.24023;95999.55;;;;
2022/08/10 00:52:56;;;;;;;5.749999;5.25;;;;;;;14.27;61.76855;95996.23;;;;
2022/08/10 00:53:56;;;;;;;5.749999;5.25;;;;;;;14.27;61.76855;95996.23;;;;
2022/08/10 00:54:57;;;;;;;5.749999;5.25;;;;;;;14.27;61.76855;95996.23;;;;
2022/08/10 00:55:59;;;;;;;5.749999;5.25;;;;;;;14.27;61.76855;95996.23;;;;
2022/08/10 00:57:00;;;;;;;5.749999;5.25;;;;;;;14.27;61.76855;95996.23;;;;
2022/08/10 00:58:01;;;;;;;5.749999;5.25;;;;;;;14.27;61.76855;95996.23;;;;
2022/08/10 00:59:01;;;;;;;5.749999;5.25;;;;;;;14.27;61.76855;95996.23;;;;
2022/08/10 01:00:02;;;;;;;5.749999;5.25;;;;;;;14.27;61.76855;95996.23;;;;
2022/08/10 01:01:06;;;;;;;5.749999;5.25;;;;;;;14.27;61.76855;95996.23;;;;
2022/08/10 01:02:06;;;;;;;5.749999;5.25;;;;;;;14.27;61.76855;95996.23;;;;
2022/08/10 01:03:07;;;;;;;6.1;5.4;;;;;;;14.16;62.25391;95994.67;;;;
2022/08/10 01:04:07;;;;;;;6.1;5.4;;;;;;;14.16;62.25391;95994.67;;;;
2022/08/10 01:05:08;;;;;;;6.1;5.4;;;;;;;14.16;62.25391;95994.67;;;;
2022/08/10 01:06:11;;;;;;;6.1;5.4;;;;;;;14.16;62.25391;95994.67;;;;
2022/08/10 01:07:18;;;;;;;6.1;5.4;;;;;;;14.16;62.25391;95994.67;;;;
2022/08/10 01:08:32;;;;;;;6.1;5.4;;;;;;;14.16;62.25391;95994.67;;;;
2022/08/10 01:09:39;;;;;;;6.1;5.4;;;;;;;14.16;62.25391;95994.67;;;;
2022/08/10 01:10:49;;;;;;;6.1;5.4;;;;;;;14.16;62.25391;95994.67;;;;
2022/08/10 01:11:58;;;;;;;6.1;5.4;;;;;;;14.16;62.25391;95994.67;;;;
2022/08/10 01:13:06;;;;;;;6.1;5.4;;;;;;;14.16;62.25391;95994.67;;;;
2022/08/10 01:14:15;;;;;;;5.65;5.15;;;;;;;14;62.63379;95993.45;;;;
2022/08/10 01:15:27;;;;;;;5.65;5.15;;;;;;;14;62.63379;95993.45;;;;
2022/08/10 01:16:33;;;;;;;5.65;5.15;;;;;;;14;62.63379;95993.45;;;;
2022/08/10 01:17:39;;;;;;;5.65;5.15;;;;;;;14;62.63379;95993.45;;;;
2022/08/10 01:18:49;;;;;;;5.65;5.15;;;;;;;14;62.63379;95993.45;;;;
2022/08/10 01:19:56;;;;;;;5.65;5.15;;;;;;;14;62.63379;95993.45;;;;
2022/08/10 01:21:03;;;;;;;5.65;5.15;;;;;;;14;62.63379;95993.45;;;;
2022/08/10 01:22:24;;;;;;;5.65;5.15;;;;;;;14;62.63379;95993.45;;;;
2022/08/10 01:23:41;;;;;;;5.65;5.15;;;;;;;14;62.63379;95993.45;;;;
2022/08/10 01:25:02;;;;;;;5.349999;4.85;;;;;;;13.92;62.96094;95988.28;;;;
2022/08/10 01:26:28;;;;;;;5.349999;4.85;;;;;;;13.92;62.96094;95988.28;;;;
2022/08/10 01:27:38;;;;;;;5.349999;4.85;;;;;;;13.92;62.96094;95988.28;;;;
2022/08/10 01:28:50;;;;;;;5.349999;4.85;;;;;;;13.92;62.96094;95988.28;;;;
2022/08/10 01:30:12;;;;;;;5.349999;4.85;;;;;;;13.92;62.96094;95988.28;;;;
2022/08/10 01:31:13;;;;;;;5.349999;4.85;;;;;;;13.92;62.96094;95988.28;;;;
2022/08/10 01:32:22;;;;;;;5.349999;4.85;;;;;;;13.92;62.96094;95988.28;;;;
2022/08/10 01:33:30;;;;;;;5.349999;4.85;;;;;;;13.92;62.96094;95988.28;;;;
2022/08/10 01:34:36;;;;;;;5.349999;4.85;;;;;;;13.92;62.96094;95988.28;;;;
2022/08/10 01:35:43;;;;;;;5.9;5.199999;;;;;;;13.79;63.27832;95987.03;;;;
2022/08/10 01:36:49;;;;;;;5.9;5.199999;;;;;;;13.79;63.27832;95987.03;;;;
2022/08/10 01:37:57;;;;;;;5.9;5.199999;;;;;;;13.79;63.27832;95987.03;;;;
2022/08/10 01:39:03;;;;;;;5.9;5.199999;;;;;;;13.79;63.27832;95987.03;;;;
2022/08/10 01:40:05;;;;;;;5.9;5.199999;;;;;;;13.79;63.27832;95987.03;;;;
2022/08/10 01:41:09;;;;;;;5.9;5.199999;;;;;;;13.79;63.27832;95987.03;;;;
2022/08/10 01:42:13;;;;;;;5.9;5.199999;;;;;;;13.79;63.27832;95987.03;;;;
2022/08/10 01:43:17;;;;;;;5.9;5.199999;;;;;;;13.79;63.27832;95987.03;;;;
2022/08/10 01:44:19;;;;;;;5.9;5.199999;;;;;;;13.79;63.27832;95987.03;;;;
2022/08/10 01:45:27;;;;;;;5.9;5.199999;;;;;;;13.79;63.27832;95987.03;;;;
2022/08/10 01:46:29;;;;;;;5.95;5.35;;;;;;;13.71;63.5918;95988.75;;;;
2022/08/10 01:48:38;;;;;;;5.95;5.35;;;;;;;13.71;63.5918;95988.75;;;;
2022/08/10 01:49:46;;;;;;;5.95;5.35;;;;;;;13.71;63.5918;95988.75;;;;
2022/08/10 01:50:49;;;;;;;5.95;5.35;;;;;;;13.71;63.5918;95988.75;;;;
2022/08/10 01:51:54;;;;;;;5.95;5.35;;;;;;;13.71;63.5918;95988.75;;;;
2022/08/10 01:52:58;;;;;;;5.95;5.35;;;;;;;13.71;63.5918;95988.75;;;;
2022/08/10 01:54:03;;;;;;;5.95;5.35;;;;;;;13.71;63.5918;95988.75;;;;
2022/08/10 01:55:06;;;;;;;5.95;5.35;;;;;;;13.71;63.5918;95988.75;;;;
2022/08/10 01:56:09;;;;;;;5.95;5.35;;;;;;;13.71;63.5918;95988.75;;;;
2022/08/10 01:57:13;;;;;;;6.25;5.649999;;;;;;;13.54;63.9707;95984.02;;;;
2022/08/10 01:58:16;;;;;;;6.25;5.649999;;;;;;;13.54;63.9707;95984.02;;;;
2022/08/10 01:59:18;;;;;;;6.25;5.649999;;;;;;;13.54;63.9707;95984.02;;;;
2022/08/10 02:00:24;;;;;;;6.25;5.649999;;;;;;;13.54;63.9707;95984.02;;;;
2022/08/10 02:01:28;;;;;;;6.25;5.649999;;;;;;;13.54;63.9707;95984.02;;;;
2022/08/10 02:02:34;;;;;;;6.25;5.649999;;;;;;;13.54;63.9707;95984.02;;;;
2022/08/10 02:03:37;;;;;;;6.25;5.649999;;;;;;;13.54;63.9707;95984.02;;;;
2022/08/10 02:04:40;;;;;;;6.25;5.649999;;;;;;;13.54;63.9707;95984.02;;;;
2022/08/10 02:05:44;;;;;;;6.25;5.649999;;;;;;;13.54;63.9707;95984.02;;;;
2022/08/10 02:06:49;;;;;;;6.25;5.649999;;;;;;;13.54;63.9707;95984.02;;;;
2022/08/10 02:07:53;;;;;;;6;5.5;;;;;;;13.44;64.35742;95984.99;;;;
2022/08/10 02:08:56;;;;;;;6;5.5;;;;;;;13.44;64.35742;95984.99;;;;
2022/08/10 02:10:00;;;;;;;6;5.5;;;;;;;13.44;64.35742;95984.99;;;;
2022/08/10 02:11:05;;;;;;;6;5.5;;;;;;;13.44;64.35742;95984.99;;;;
2022/08/10 02:12:08;;;;;;;6;5.5;;;;;;;13.44;64.35742;95984.99;;;;
2022/08/10 02:13:13;;;;;;;6;5.5;;;;;;;13.44;64.35742;95984.99;;;;
2022/08/10 02:14:16;;;;;;;6;5.5;;;;;;;13.44;64.35742;95984.99;;;;
2022/08/10 02:15:19;;;;;;;6;5.5;;;;;;;13.44;64.35742;95984.99;;;;
2022/08/10 02:16:20;;;;;;;6;5.5;;;;;;;13.44;64.35742;95984.99;;;;
2022/08/10 02:17:24;;;;;;;6;5.5;;;;;;;13.44;64.35742;95984.99;;;;
2022/08/10 02:18:30;;;;;;;5.899999;5;;;;;;;13.3;64.65137;95981.7;;;;
2022/08/10 02:19:33;;;;;;;5.899999;5;;;;;;;13.3;64.65137;95981.7;;;;
2022/08/10 02:20:37;;;;;;;5.899999;5;;;;;;;13.3;64.65137;95981.7;;;;
2022/08/10 02:21:42;;;;;;;5.899999;5;;;;;;;13.3;64.65137;95981.7;;;;
2022/08/10 02:22:45;;;;;;;5.899999;5;;;;;;;13.3;64.65137;95981.7;;;;
2022/08/10 02:23:50;;;;;;;5.899999;5;;;;;;;13.3;64.65137;95981.7;;;;
2022/08/10 02:24:52;;;;;;;5.899999;5;;;;;;;13.3;64.65137;95981.7;;;;
2022/08/10 02:25:55;;;;;;;5.899999;5;;;;;;;13.3;64.65137;95981.7;;;;
2022/08/10 02:26:59;;;;;;;5.899999;5;;;;;;;13.3;64.65137;95981.7;;;;
2022/08/10 02:28:00;;;;;;;5.899999;5;;;;;;;13.3;64.65137;95981.7;;;;
2022/08/10 02:29:03;;;;;;;6.1;5.5;;;;;;;13.23;64.92383;95978.66;;;;
2022/08/10 02:30:04;;;;;;;6.1;5.5;;;;;;;13.23;64.92383;95978.66;;;;
2022/08/10 02:31:07;;;;;;;6.1;5.5;;;;;;;13.23;64.92383;95978.66;;;;
2022/08/10 02:32:11;;;;;;;6.1;5.5;;;;;;;13.23;64.92383;95978.66;;;;
2022/08/10 02:33:12;;;;;;;6.1;5.5;;;;;;;13.23;64.92383;95978.66;;;;
2022/08/10 02:34:16;;;;;;;6.1;5.5;;;;;;;13.23;64.92383;95978.66;;;;
2022/08/10 02:35:17;;;;;;;6.1;5.5;;;;;;;13.23;64.92383;95978.66;;;;
2022/08/10 02:36:19;;;;;;;6.1;5.5;;;;;;;13.23;64.92383;95978.66;;;;
2022/08/10 02:37:21;;;;;;;6.1;5.5;;;;;;;13.23;64.92383;95978.66;;;;
2022/08/10 02:38:25;;;;;;;6.1;5.5;;;;;;;13.23;64.92383;95978.66;;;;
2022/08/10 02:39:32;;;;;;;5.5;5;;;;;;;13.09;65.14355;95970.37;;;;
2022/08/10 02:40:34;;;;;;;5.5;5;;;;;;;13.09;65.14355;95970.37;;;;
2022/08/10 02:41:40;;;;;;;5.5;5;;;;;;;13.09;65.14355;95970.37;;;;
2022/08/10 02:42:45;;;;;;;5.5;5;;;;;;;13.09;65.14355;95970.37;;;;
2022/08/10 02:43:56;;;;;;;5.5;5;;;;;;;13.09;65.14355;95970.37;;;;
2022/08/10 02:45:02;;;;;;;5.5;5;;;;;;;13.09;65.14355;95970.37;;;;
2022/08/10 02:46:10;;;;;;;5.5;5;;;;;;;13.09;65.14355;95970.37;;;;
2022/08/10 02:47:15;;;;;;;5.5;5;;;;;;;13.09;65.14355;95970.37;;;;
2022/08/10 02:48:24;;;;;;;5.5;5;;;;;;;13.09;65.14355;95970.37;;;;
2022/08/10 02:49:35;;;;;;;5.95;5.35;;;;;;;13.04;65.37402;95964.87;;;;
2022/08/10 02:50:40;;;;;;;5.95;5.35;;;;;;;13.04;65.37402;95964.87;;;;
2022/08/10 02:51:46;;;;;;;5.95;5.35;;;;;;;13.04;65.37402;95964.87;;;;
2022/08/10 02:52:53;;;;;;;5.95;5.35;;;;;;;13.04;65.37402;95964.87;;;;
2022/08/10 02:54:00;;;;;;;5.95;5.35;;;;;;;13.04;65.37402;95964.87;;;;
2022/08/10 02:55:06;;;;;;;5.95;5.35;;;;;;;13.04;65.37402;95964.87;;;;
2022/08/10 02:56:15;;;;;;;5.95;5.35;;;;;;;13.04;65.37402;95964.87;;;;
2022/08/10 02:57:21;;;;;;;5.95;5.35;;;;;;;13.04;65.37402;95964.87;;;;
2022/08/10 02:58:27;;;;;;;5.95;5.35;;;;;;;13.04;65.37402;95964.87;;;;
2022/08/10 02:59:33;;;;;;;5.95;5.35;;;;;;;13.04;65.37402;95964.87;;;;
2022/08/10 03:00:41;;;;;;;5.65;5.15;;;;;;;12.91;65.62598;95962.73;;;;
2022/08/10 03:01:45;;;;;;;5.65;5.15;;;;;;;12.91;65.62598;95962.73;;;;
2022/08/10 03:02:49;;;;;;;5.65;5.15;;;;;;;12.91;65.62598;95962.73;;;;
2022/08/10 03:03:52;;;;;;;5.65;5.15;;;;;;;12.91;65.62598;95962.73;;;;
2022/08/10 03:04:58;;;;;;;5.65;5.15;;;;;;;12.91;65.62598;95962.73;;;;
2022/08/10 03:06:02;;;;;;;5.65;5.15;;;;;;;12.91;65.62598;95962.73;;;;
2022/08/10 03:07:07;;;;;;;5.65;5.15;;;;;;;12.91;65.62598;95962.73;;;;
2022/08/10 03:08:12;;;;;;;5.65;5.15;;;;;;;12.91;65.62598;95962.73;;;;
2022/08/10 03:09:17;;;;;;;5.65;5.15;;;;;;;12.91;65.62598;95962.73;;;;
2022/08/10 03:10:18;;;;;;;5.65;5.15;;;;;;;12.91;65.62598;95962.73;;;;
2022/08/10 03:11:27;;;;;;;7.1;5.9;;;;;;;12.88;65.9668;95957.84;;;;
2022/08/10 03:12:30;;;;;;;7.1;5.9;;;;;;;12.88;65.9668;95957.84;;;;
2022/08/10 03:13:34;;;;;;;7.1;5.9;;;;;;;12.88;65.9668;95957.84;;;;
2022/08/10 03:14:36;;;;;;;7.1;5.9;;;;;;;12.88;65.9668;95957.84;;;;
2022/08/10 03:15:37;;;;;;;7.1;5.9;;;;;;;12.88;65.9668;95957.84;;;;
2022/08/10 03:16:39;;;;;;;7.1;5.9;;;;;;;12.88;65.9668;95957.84;;;;
2022/08/10 03:17:42;;;;;;;7.1;5.9;;;;;;;12.88;65.9668;95957.84;;;;
2022/08/10 03:18:44;;;;;;;7.1;5.9;;;;;;;12.88;65.9668;95957.84;;;;
2022/08/10 03:19:46;;;;;;;7.1;5.9;;;;;;;12.88;65.9668;95957.84;;;;
2022/08/10 03:20:47;;;;;;;7.1;5.9;;;;;;;12.88;65.9668;95957.84;;;;
2022/08/10 03:21:50;;;;;;;7.849999;5.95;;;;;;;12.81;66.23926;95957.87;;;;
2022/08/10 03:22:52;;;;;;;7.849999;5.95;;;;;;;12.81;66.23926;95957.87;;;;
2022/08/10 03:23:54;;;;;;;7.849999;5.95;;;;;;;12.81;66.23926;95957.87;;;;
2022/08/10 03:24:57;;;;;;;7.849999;5.95;;;;;;;12.81;66.23926;95957.87;;;;
2022/08/10 03:25:59;;;;;;;7.849999;5.95;;;;;;;12.81;66.23926;95957.87;;;;
2022/08/10 03:27:00;;;;;;;7.849999;5.95;;;;;;;12.81;66.23926;95957.87;;;;
2022/08/10 03:28:03;;;;;;;7.849999;5.95;;;;;;;12.81;66.23926;95957.87;;;;
2022/08/10 03:29:04;;;;;;;7.849999;5.95;;;;;;;12.81;66.23926;95957.87;;;;
2022/08/10 03:30:07;;;;;;;7.849999;5.95;;;;;;;12.81;66.23926;95957.87;;;;
2022/08/10 03:31:09;;;;;;;7.849999;5.95;;;;;;;12.81;66.23926;95957.87;;;;
2022/08/10 03:32:11;;;;;;;6.599999;6;;;;;;;12.82;66.37109;95949.41;;;;
2022/08/10 03:33:12;;;;;;;6.599999;6;;;;;;;12.82;66.37109;95949.41;;;;
2022/08/10 03:34:13;;;;;;;6.599999;6;;;;;;;12.82;66.37109;95949.41;;;;
2022/08/10 03:35:16;;;;;;;6.599999;6;;;;;;;12.82;66.37109;95949.41;;;;
2022/08/10 03:36:17;;;;;;;6.599999;6;;;;;;;12.82;66.37109;95949.41;;;;
2022/08/10 03:37:18;;;;;;;6.599999;6;;;;;;;12.82;66.37109;95949.41;;;;
2022/08/10 03:38:18;;;;;;;6.599999;6;;;;;;;12.82;66.37109;95949.41;;;;
2022/08/10 03:39:20;;;;;;;6.599999;6;;;;;;;12.82;66.37109;95949.41;;;;
2022/08/10 03:40:21;;;;;;;6.599999;6;;;;;;;12.82;66.37109;95949.41;;;;
2022/08/10 03:41:22;;;;;;;6.599999;6;;;;;;;12.82;66.37109;95949.41;;;;
2022/08/10 03:42:32;;;;;;;6.599999;6;;;;;;;12.82;66.37109;95949.41;;;;
2022/08/10 03:43:36;;;;;;;7.299999;6.55;;;;;;;12.79;66.5293;95943.98;;;;
2022/08/10 03:44:37;;;;;;;7.299999;6.55;;;;;;;12.79;66.5293;95943.98;;;;
2022/08/10 03:45:40;;;;;;;7.299999;6.55;;;;;;;12.79;66.5293;95943.98;;;;
2022/08/10 03:46:42;;;;;;;7.299999;6.55;;;;;;;12.79;66.5293;95943.98;;;;
2022/08/10 03:47:46;;;;;;;7.299999;6.55;;;;;;;12.79;66.5293;95943.98;;;;
2022/08/10 03:48:48;;;;;;;7.299999;6.55;;;;;;;12.79;66.5293;95943.98;;;;
2022/08/10 03:49:51;;;;;;;7.299999;6.55;;;;;;;12.79;66.5293;95943.98;;;;
2022/08/10 03:50:54;;;;;;;7.299999;6.55;;;;;;;12.79;66.5293;95943.98;;;;
2022/08/10 03:51:56;;;;;;;7.299999;6.55;;;;;;;12.79;66.5293;95943.98;;;;
2022/08/10 03:52:58;;;;;;;7.299999;6.55;;;;;;;12.79;66.5293;95943.98;;;;
2022/08/10 03:53:59;;;;;;;6.8;6.2;;;;;;;12.86;66.75586;95943.55;;;;
2022/08/10 03:55:01;;;;;;;6.8;6.2;;;;;;;12.86;66.75586;95943.55;;;;
2022/08/10 03:56:04;;;;;;;6.8;6.2;;;;;;;12.86;66.75586;95943.55;;;;
2022/08/10 03:57:05;;;;;;;6.8;6.2;;;;;;;12.86;66.75586;95943.55;;;;
2022/08/10 03:58:06;;;;;;;6.8;6.2;;;;;;;12.86;66.75586;95943.55;;;;
2022/08/10 03:59:07;;;;;;;6.8;6.2;;;;;;;12.86;66.75586;95943.55;;;;
2022/08/10 04:00:11;;;;;;;6.8;6.2;;;;;;;12.86;66.75586;95943.55;;;;
2022/08/10 04:01:13;;;;;;;6.8;6.2;;;;;;;12.86;66.75586;95943.55;;;;
2022/08/10 04:02:14;;;;;;;6.8;6.2;;;;;;;12.86;66.75586;95943.55;;;;
2022/08/10 04:03:16;;;;;;;6.8;6.2;;;;;;;12.86;66.75586;95943.55;;;;
2022/08/10 04:04:17;;;;;;;6.799999;6.299999;;;;;;;12.84;67.02344;95949.61;;;;
2022/08/10 04:05:19;;;;;;;6.799999;6.299999;;;;;;;12.84;67.02344;95949.61;;;;
2022/08/10 04:06:20;;;;;;;6.799999;6.299999;;;;;;;12.84;67.02344;95949.61;;;;
2022/08/10 04:07:20;;;;;;;6.799999;6.299999;;;;;;;12.84;67.02344;95949.61;;;;
2022/08/10 04:08:21;;;;;;;6.799999;6.299999;;;;;;;12.84;67.02344;95949.61;;;;
2022/08/10 04:09:22;;;;;;;6.799999;6.299999;;;;;;;12.84;67.02344;95949.61;;;;
2022/08/10 04:10:26;;;;;;;6.799999;6.299999;;;;;;;12.84;67.02344;95949.61;;;;
2022/08/10 04:11:27;;;;;;;6.799999;6.299999;;;;;;;12.84;67.02344;95949.61;;;;
2022/08/10 04:12:28;;;;;;;6.799999;6.299999;;;;;;;12.84;67.02344;95949.61;;;;
2022/08/10 04:13:28;;;;;;;6.799999;6.299999;;;;;;;12.84;67.02344;95949.61;;;;
2022/08/10 04:14:29;;;;;;;6.799999;6.299999;;;;;;;12.84;67.02344;95949.61;;;;
2022/08/10 04:15:29;;;;;;;6.600001;6;;;;;;;12.88;67.19238;95961.83;;;;
2022/08/10 04:16:30;;;;;;;6.600001;6;;;;;;;12.88;67.19238;95961.83;;;;
2022/08/10 04:17:30;;;;;;;6.600001;6;;;;;;;12.88;67.19238;95961.83;;;;
2022/08/10 04:18:31;;;;;;;6.600001;6;;;;;;;12.88;67.19238;95961.83;;;;
2022/08/10 04:19:31;;;;;;;6.600001;6;;;;;;;12.88;67.19238;95961.83;;;;
2022/08/10 04:20:39;;;;;;;6.600001;6;;;;;;;12.88;67.19238;95961.83;;;;
2022/08/10 04:21:46;;;;;;;6.600001;6;;;;;;;12.88;67.19238;95961.83;;;;
2022/08/10 04:22:53;;;;;;;6.600001;6;;;;;;;12.88;67.19238;95961.83;;;;
2022/08/10 04:23:58;;;;;;;6.600001;6;;;;;;;12.88;67.19238;95961.83;;;;
2022/08/10 04:25:01;;;;;;;6.600001;6;;;;;;;12.88;67.19238;95961.83;;;;
2022/08/10 04:26:04;;;;;;;8.750001;6.35;;;;;;;12.85;67.31836;95966.64;;;;
2022/08/10 04:27:05;;;;;;;8.750001;6.35;;;;;;;12.85;67.31836;95966.64;;;;
2022/08/10 04:28:06;;;;;;;8.750001;6.35;;;;;;;12.85;67.31836;95966.64;;;;
2022/08/10 04:29:07;;;;;;;8.750001;6.35;;;;;;;12.85;67.31836;95966.64;;;;
2022/08/10 04:30:08;;;;;;;8.750001;6.35;;;;;;;12.85;67.31836;95966.64;;;;
2022/08/10 04:31:09;;;;;;;8.750001;6.35;;;;;;;12.85;67.31836;95966.64;;;;
2022/08/10 04:32:14;;;;;;;8.750001;6.35;;;;;;;12.85;67.31836;95966.64;;;;
2022/08/10 04:33:18;;;;;;;8.750001;6.35;;;;;;;12.85;67.31836;95966.64;;;;
2022/08/10 04:34:21;;;;;;;8.750001;6.35;;;;;;;12.85;67.31836;95966.64;;;;
2022/08/10 04:35:25;;;;;;;8.750001;6.35;;;;;;;12.85;67.31836;95966.64;;;;
2022/08/10 04:36:27;;;;;;;7.5;6.7;;;;;;;12.92;67.4043;95977.23;;;;
2022/08/10 04:37:29;;;;;;;7.5;6.7;;;;;;;12.92;67.4043;95977.23;;;;
2022/08/10 04:38:30;;;;;;;7.5;6.7;;;;;;;12.92;67.4043;95977.23;;;;
2022/08/10 04:39:32;;;;;;;7.5;6.7;;;;;;;12.92;67.4043;95977.23;;;;
2022/08/10 04:40:33;;;;;;;7.5;6.7;;;;;;;12.92;67.4043;95977.23;;;;
2022/08/10 04:41:34;;;;;;;7.5;6.7;;;;;;;12.92;67.4043;95977.23;;;;
2022/08/10 04:42:35;;;;;;;7.5;6.7;;;;;;;12.92;67.4043;95977.23;;;;
2022/08/10 04:43:36;;;;;;;7.5;6.7;;;;;;;12.92;67.4043;95977.23;;;;
2022/08/10 04:44:37;;;;;;;7.5;6.7;;;;;;;12.92;67.4043;95977.23;;;;
2022/08/10 04:45:38;;;;;;;7.5;6.7;;;;;;;12.92;67.4043;95977.23;;;;
2022/08/10 04:46:40;;;;;;;7.5;6.7;;;;;;;12.92;67.4043;95977.23;;;;
2022/08/10 04:47:40;;;;;;;6.55;5.9;;;;;;;12.95;67.5166;95979.47;;;;
2022/08/10 04:48:41;;;;;;;6.55;5.9;;;;;;;12.95;67.5166;95979.47;;;;
2022/08/10 04:49:41;;;;;;;6.55;5.9;;;;;;;12.95;67.5166;95979.47;;;;
2022/08/10 04:50:42;;;;;;;6.55;5.9;;;;;;;12.95;67.5166;95979.47;;;;
2022/08/10 04:51:42;;;;;;;6.55;5.9;;;;;;;12.95;67.5166;95979.47;;;;
2022/08/10 04:52:43;;;;;;;6.55;5.9;;;;;;;12.95;67.5166;95979.47;;;;
2022/08/10 04:53:43;;;;;;;6.55;5.9;;;;;;;12.95;67.5166;95979.47;;;;
2022/08/10 04:54:45;;;;;;;6.55;5.9;;;;;;;12.95;67.5166;95979.47;;;;
2022/08/10 04:55:45;;;;;;;6.55;5.9;;;;;;;12.95;67.5166;95979.47;;;;
2022/08/10 04:56:46;;;;;;;6.55;5.9;;;;;;;12.95;67.5166;95979.47;;;;
2022/08/10 04:57:46;;;;;;;7.650001;6.7;;;;;;;13.13;67.65527;95970.23;;;;
2022/08/10 04:58:47;;;;;;;7.650001;6.7;;;;;;;13.13;67.65527;95970.23;;;;
2022/08/10 04:59:48;;;;;;;7.650001;6.7;;;;;;;13.13;67.65527;95970.23;;;;
2022/08/10 05:00:48;;;;;;;7.650001;6.7;;;;;;;13.13;67.65527;95970.23;;;;
2022/08/10 05:01:49;;;;;;;7.650001;6.7;;;;;;;13.13;67.65527;95970.23;;;;
2022/08/10 05:02:50;;;;;;;7.650001;6.7;;;;;;;13.13;67.65527;95970.23;;;;
2022/08/10 05:03:51;;;;;;;7.650001;6.7;;;;;;;13.13;67.65527;95970.23;;;;
2022/08/10 05:04:51;;;;;;;7.650001;6.7;;;;;;;13.13;67.65527;95970.23;;;;
2022/08/10 05:05:52;;;;;;;7.650001;6.7;;;;;;;13.13;67.65527;95970.23;;;;
2022/08/10 05:06:52;;;;;;;7.650001;6.7;;;;;;;13.13;67.65527;95970.23;;;;
2022/08/10 05:07:53;;;;;;;7.650001;6.7;;;;;;;13.13;67.65527;95970.23;;;;
2022/08/10 05:08:53;;;;;;;7.2;6.55;;;;;;;13.41;67.68457;95973.07;;;;
2022/08/10 05:09:54;;;;;;;7.2;6.55;;;;;;;13.41;67.68457;95973.07;;;;
2022/08/10 05:10:55;;;;;;;7.2;6.55;;;;;;;13.41;67.68457;95973.07;;;;
2022/08/10 05:11:55;;;;;;;7.2;6.55;;;;;;;13.41;67.68457;95973.07;;;;
2022/08/10 05:12:55;;;;;;;7.2;6.55;;;;;;;13.41;67.68457;95973.07;;;;
2022/08/10 05:13:56;;;;;;;7.2;6.55;;;;;;;13.41;67.68457;95973.07;;;;
2022/08/10 05:14:57;;;;;;;7.2;6.55;;;;;;;13.41;67.68457;95973.07;;;;
2022/08/10 05:15:57;;;;;;;7.2;6.55;;;;;;;13.41;67.68457;95973.07;;;;
2022/08/10 05:16:57;;;;;;;7.2;6.55;;;;;;;13.41;67.68457;95973.07;;;;
2022/08/10 05:17:58;;;;;;;7.2;6.55;;;;;;;13.41;67.68457;95973.07;;;;
2022/08/10 05:18:58;;;;;;;6.05;5.45;;;;;;;13.87;67.68262;95984.15;;;;
2022/08/10 05:19:59;;;;;;;6.05;5.45;;;;;;;13.87;67.68262;95984.15;;;;
2022/08/10 05:20:59;;;;;;;6.05;5.45;;;;;;;13.87;67.68262;95984.15;;;;
2022/08/10 05:22:00;;;;;;;6.05;5.45;;;;;;;13.87;67.68262;95984.15;;;;
2022/08/10 05:23:00;;;;;;;6.05;5.45;;;;;;;13.87;67.68262;95984.15;;;;
2022/08/10 05:24:03;;;;;;;6.05;5.45;;;;;;;13.87;67.68262;95984.15;;;;
2022/08/10 05:25:04;;;;;;;6.05;5.45;;;;;;;13.87;67.68262;95984.15;;;;
2022/08/10 05:26:07;;;;;;;6.05;5.45;;;;;;;13.87;67.68262;95984.15;;;;
2022/08/10 05:27:08;;;;;;;6.05;5.45;;;;;;;13.87;67.68262;95984.15;;;;
2022/08/10 05:28:08;;;;;;;6.05;5.45;;;;;;;13.87;67.68262;95984.15;;;;
2022/08/10 05:29:09;;;;;;;6.05;5.45;;;;;;;13.87;67.68262;95984.15;;;;
2022/08/10 05:30:10;;;;;;;5.400001;4.9;;;;;;;14.39;67.40332;95984.79;;;;
2022/08/10 05:31:13;;;;;;;5.400001;4.9;;;;;;;14.39;67.40332;95984.79;;;;
2022/08/10 05:32:13;;;;;;;5.400001;4.9;;;;;;;14.39;67.40332;95984.79;;;;
2022/08/10 05:33:14;;;;;;;5.400001;4.9;;;;;;;14.39;67.40332;95984.79;;;;
2022/08/10 05:34:15;;;;;;;5.400001;4.9;;;;;;;14.39;67.40332;95984.79;;;;
2022/08/10 05:35:15;;;;;;;5.400001;4.9;;;;;;;14.39;67.40332;95984.79;;;;
2022/08/10 05:36:16;;;;;;;5.400001;4.9;;;;;;;14.39;67.40332;95984.79;;;;
2022/08/10 05:37:17;;;;;;;5.400001;4.9;;;;;;;14.39;67.40332;95984.79;;;;
2022/08/10 05:38:19;;;;;;;5.400001;4.9;;;;;;;14.39;67.40332;95984.79;;;;
2022/08/10 05:39:21;;;;;;;5.400001;4.9;;;;;;;14.39;67.40332;95984.79;;;;
2022/08/10 05:40:22;;;;;;;4.95;4.4;;;;;;;14.95;66.98633;95978.8;;;;
2022/08/10 05:41:24;;;;;;;4.95;4.4;;;;;;;14.95;66.98633;95978.8;;;;
2022/08/10 05:42:27;;;;;;;4.95;4.4;;;;;;;14.95;66.98633;95978.8;;;;
2022/08/10 05:43:28;;;;;;;4.95;4.4;;;;;;;14.95;66.98633;95978.8;;;;
2022/08/10 05:44:29;;;;;;;4.95;4.4;;;;;;;14.95;66.98633;95978.8;;;;
2022/08/10 05:45:29;;;;;;;4.95;4.4;;;;;;;14.95;66.98633;95978.8;;;;
2022/08/10 05:46:30;;;;;;;4.95;4.4;;;;;;;14.95;66.98633;95978.8;;;;
2022/08/10 05:47:30;;;;;;;4.95;4.4;;;;;;;14.95;66.98633;95978.8;;;;
2022/08/10 05:48:31;;;;;;;4.95;4.4;;;;;;;14.95;66.98633;95978.8;;;;
2022/08/10 05:49:32;;;;;;;4.95;4.4;;;;;;;14.95;66.98633;95978.8;;;;
2022/08/10 05:50:33;;;;;;;4.95;4.4;;;;;;;14.95;66.98633;95978.8;;;;
2022/08/10 05:51:34;;;;;;;5.1;4.249999;;;;;;;15.37;66.64746;95978.81;;;;
2022/08/10 05:52:35;;;;;;;5.1;4.249999;;;;;;;15.37;66.64746;95978.81;;;;